Mobridge Municipal Airport
KMBG : rendu visible

Aérodrome :











RETROUVEZ-NOUS SUR...

 
LOGIN :

S'inscrire | Disclaimer

   EN    FR    IT 

 









Légende :    VFR   VFR Marginal   IFR   IFR Intensif   IFR Très Intensif
Visi : 
Plafond : 
>= 8 km
>= 3000ft
5 à 8 km
1000 à 3000 ft
1500m à 5 km
500 à 1000 ft
800 à 1500m
200 à 500 ft
< 800m
< 200 ft
Symboles :   Orages  Brouillard  Fortes neiges  Fortes précipitations  Vent > 20 kt






- Altitude de l'aérodrome : 1716 ft


KMBG - Mobridge Municipal

DERNIER METAR :
  • 060952Z AUTO 15003KT 4SM BR CLR 16/14 A2994 RMK AO2 SLP131 T01610144

METARs EXPIRÉS :
  • 060929Z AUTO 13005KT 6SM BR SCT002 16/14 A2995 RMK AO2 T01610144
  • 060920Z AUTO 14004KT 6SM BR SCT002 BKN006 16/14 A2994 RMK AO2 T01610144
  • 060900Z AUTO 13003KT 7SM FEW006 16/13 A2994 RMK AO2 T01560133
  • 060752Z AUTO 11006KT 10SM CLR 17/15 A2994 RMK AO2 SLP128 T01720150

TAF KMBG
Valide du 06 à 10h jusqu'au 07 à 06h UTC


061005Z 0610/0706 VRB06KT 3SM BR SCT002
FM061500 13008KT P6SM SKC
FM062200 15010G18KT P6SM SKC
FIR KZMP / Amérique du Nord



MET'MAP, la Météo Aéronautique d'un coup d'oeil ! - Copyright ORBIFLY Décembre 2007 - Disclaimer

ORBIFLY MET'MAP TEAM :

Programmation & Développement : Alexandra Zaïnal
Sur une idée originale de : Baudouin d'Aumeries
Assistance à la programmation : Marc-Olivier Méhu
Soutien technique & logistique : Manuel Goepfert

Contact : metmap@orbifly.com




SOURCES & CREDITS :

   NOAA       Earth
Advisory